Time;durP1;ratioP1;P1;durP2;ratioP2;P2;SDS_P1;SDS_P2;PMS_P1;PMS_P2;Temp;Humidity;BMP_temperature;BMP_pressure;BME280_temperature;BME280_humidity;BME280_pressure;Samples;Min_cycle;Max_cycle;Signal;HPM_P1;HPM_P2
2024/03/23 00:00:07;;;;;;;23.60;21.70;;;;;;;;;;5103669;28;20040;-51
2024/03/23 00:02:33;;;;;;;23.75;21.83;;;;;;;;;;5073762;28;20032;-49
2024/03/23 00:04:59;;;;;;;24.15;22.15;;;;;;;;;;5093153;22;20019;-51
2024/03/23 00:07:25;;;;;;;24.10;22.10;;;;;;;;;;5070207;28;20105;-47
2024/03/23 00:09:51;;;;;;;23.65;21.67;;;;;;;;;;5051545;28;20032;-51
2024/03/23 00:12:17;;;;;;;24.17;22.17;;;;;;;;;;5051734;28;20063;-50
2024/03/23 00:14:43;;;;;;;24.50;22.50;;;;;;;;;;5052196;28;20500;-51
2024/03/23 00:17:09;;;;;;;25.05;23.05;;;;;;;;;;5070098;28;20078;-49
2024/03/23 00:19:35;;;;;;;24.05;22.05;;;;;;;;;;5070034;28;20021;-53
2024/03/23 00:22:01;;;;;;;24.20;22.20;;;;;;;;;;5051873;28;20028;-52
2024/03/23 00:24:27;;;;;;;23.73;21.77;;;;;;;;;;5070522;28;20103;-50
2024/03/23 00:26:53;;;;;;;23.20;21.30;;;;;;;;;;5070647;28;20112;-49
2024/03/23 00:29:19;;;;;;;22.58;20.67;;;;;;;;;;5070912;28;20047;-50
2024/03/23 00:31:45;;;;;;;22.80;20.90;;;;;;;;;;5070638;28;20040;-50
2024/03/23 00:34:11;;;;;;;22.70;20.80;;;;;;;;;;5070656;28;20363;-52
2024/03/23 00:36:37;;;;;;;23.40;21.50;;;;;;;;;;5071046;28;20020;-49
2024/03/23 00:39:03;;;;;;;23.08;21.17;;;;;;;;;;5070646;28;20024;-50
2024/03/23 00:41:29;;;;;;;22.95;21.05;;;;;;;;;;5070005;28;20028;-51
2024/03/23 00:43:55;;;;;;;21.73;19.83;;;;;;;;;;5051987;28;20514;-50
2024/03/23 00:46:21;;;;;;;21.75;19.85;;;;;;;;;;5070125;28;20025;-53
2024/03/23 00:48:47;;;;;;;21.40;19.50;;;;;;;;;;5070153;28;20021;-52
2024/03/23 00:51:13;;;;;;;20.42;18.63;;;;;;;;;;5070071;28;20470;-51
2024/03/23 00:53:39;;;;;;;19.90;18.10;;;;;;;;;;5069520;28;20379;-50
2024/03/23 00:56:05;;;;;;;20.48;18.67;;;;;;;;;;5069997;28;20021;-50
2024/03/23 00:58:31;;;;;;;20.02;18.23;;;;;;;;;;5070188;28;20024;-50
2024/03/23 01:00:57;;;;;;;19.13;17.33;;;;;;;;;;5051930;28;20111;-53
2024/03/23 01:03:23;;;;;;;18.60;16.80;;;;;;;;;;5069317;28;20481;-50
2024/03/23 01:05:49;;;;;;;18.48;16.67;;;;;;;;;;5069738;28;20035;-50
2024/03/23 01:08:15;;;;;;;18.48;16.67;;;;;;;;;;5069997;28;20082;-51
2024/03/23 01:10:41;;;;;;;19.77;17.98;;;;;;;;;;5052130;28;20036;-51
2024/03/23 01:13:07;;;;;;;20.25;18.45;;;;;;;;;;5051283;28;20028;-52
2024/03/23 01:15:33;;;;;;;20.48;18.67;;;;;;;;;;5069887;28;20470;-52
2024/03/23 01:17:59;;;;;;;22.48;20.58;;;;;;;;;;5072368;28;20035;-53
2024/03/23 01:20:25;;;;;;;23.27;21.38;;;;;;;;;;5074110;28;20099;-53
2024/03/23 01:22:51;;;;;;;23.75;21.85;;;;;;;;;;5073442;28;20033;-51
2024/03/23 01:25:17;;;;;;;24.35;22.45;;;;;;;;;;5056367;28;20127;-49
2024/03/23 01:27:43;;;;;;;26.70;24.70;;;;;;;;;;5074268;28;20031;-49
2024/03/23 01:30:09;;;;;;;25.95;23.95;;;;;;;;;;5073858;28;20053;-48
2024/03/23 01:32:35;;;;;;;27.20;25.10;;;;;;;;;;5073535;28;20025;-51
2024/03/23 01:35:01;;;;;;;27.88;25.77;;;;;;;;;;5073883;28;20475;-51
2024/03/23 01:37:27;;;;;;;30.10;27.90;;;;;;;;;;5073781;28;20033;-51
2024/03/23 01:39:53;;;;;;;29.98;27.77;;;;;;;;;;5073611;28;20027;-52
2024/03/23 01:42:19;;;;;;;30.60;28.40;;;;;;;;;;5073284;28;20029;-55
2024/03/23 01:44:45;;;;;;;30.40;28.20;;;;;;;;;;5055084;28;20048;-54
2024/03/23 01:47:11;;;;;;;30.35;28.15;;;;;;;;;;5073567;28;20031;-52
2024/03/23 01:49:37;;;;;;;30.33;28.13;;;;;;;;;;5073497;28;20467;-54
2024/03/23 01:52:04;;;;;;;30.48;28.27;;;;;;;;;;5072937;28;20029;-56
2024/03/23 01:54:30;;;;;;;30.35;28.15;;;;;;;;;;5054821;28;20029;-53
2024/03/23 01:56:56;;;;;;;30.45;28.25;;;;;;;;;;5055406;28;20029;-53
2024/03/23 01:59:22;;;;;;;31.17;28.98;;;;;;;;;;5073418;28;20025;-48
2024/03/23 02:01:48;;;;;;;31.27;29.05;;;;;;;;;;5073075;28;20101;-55
2024/03/23 02:04:14;;;;;;;31.25;28.95;;;;;;;;;;5072976;28;20025;-52
2024/03/23 02:06:40;;;;;;;30.85;28.65;;;;;;;;;;5055003;28;20475;-52
2024/03/23 02:09:06;;;;;;;31.40;29.10;;;;;;;;;;5073080;28;20035;-50
2024/03/23 02:11:32;;;;;;;30.15;27.95;;;;;;;;;;5072648;28;20486;-51
2024/03/23 02:13:58;;;;;;;31.65;29.35;;;;;;;;;;5072372;28;20075;-51
2024/03/23 02:16:24;;;;;;;30.10;27.90;;;;;;;;;;5072906;28;20025;-50
2024/03/23 02:18:50;;;;;;;31.40;29.20;;;;;;;;;;5072871;28;20500;-53
2024/03/23 02:21:16;;;;;;;29.90;27.70;;;;;;;;;;5072776;28;20070;-52
2024/03/23 02:23:42;;;;;;;30.55;28.35;;;;;;;;;;5072256;28;20024;-52
2024/03/23 02:26:08;;;;;;;30.88;28.67;;;;;;;;;;5072654;28;20047;-55
2024/03/23 02:28:34;;;;;;;31.92;29.65;;;;;;;;;;5072130;28;20024;-50
2024/03/23 02:31:01;;;;;;;31.73;29.50;;;;;;;;;;5072686;28;20028;-53
2024/03/23 02:33:27;;;;;;;32.20;29.90;;;;;;;;;;5054057;28;20071;-52
2024/03/23 02:35:56;;;;;;;31.65;29.35;;;;;;;;;;5054851;28;20021;-53
2024/03/23 02:38:22;;;;;;;30.98;28.77;;;;;;;;;;5072906;28;20070;-52
2024/03/23 02:40:48;;;;;;;32.63;30.33;;;;;;;;;;5072913;28;20471;-49
2024/03/23 02:43:14;;;;;;;30.95;28.75;;;;;;;;;;5072141;28;20100;-49
2024/03/23 02:45:40;;;;;;;32.08;29.77;;;;;;;;;;5072720;28;20016;-53
2024/03/23 02:48:06;;;;;;;30.48;28.27;;;;;;;;;;5072602;28;20144;-51
2024/03/23 02:50:32;;;;;;;29.73;27.52;;;;;;;;;;5072489;28;20023;-51
2024/03/23 02:52:58;;;;;;;29.35;27.15;;;;;;;;;;5071646;28;20024;-50
2024/03/23 02:55:24;;;;;;;29.40;27.20;;;;;;;;;;5054429;28;20040;-53
2024/03/23 02:57:50;;;;;;;29.35;27.15;;;;;;;;;;5054371;28;20021;-50
2024/03/23 03:00:16;;;;;;;27.90;25.80;;;;;;;;;;5072838;28;20436;-50
2024/03/23 03:02:42;;;;;;;27.85;25.75;;;;;;;;;;5071691;28;20394;-51
2024/03/23 03:05:09;;;;;;;27.60;25.50;;;;;;;;;;5072065;28;20029;-55
2024/03/23 03:07:35;;;;;;;27.55;25.45;;;;;;;;;;5072360;28;20027;-51
2024/03/23 03:10:00;;;;;;;27.45;25.35;;;;;;;;;;5072129;28;20025;-49
2024/03/23 03:12:27;;;;;;;27.02;24.92;;;;;;;;;;5071468;28;20386;-55
2024/03/23 03:14:53;;;;;;;27.48;25.38;;;;;;;;;;5071893;28;20116;-52
2024/03/23 03:17:19;;;;;;;27.17;25.08;;;;;;;;;;5053914;28;20119;-49
2024/03/23 03:19:45;;;;;;;27.00;24.90;;;;;;;;;;5072023;28;20021;-51
2024/03/23 03:22:11;;;;;;;27.58;25.48;;;;;;;;;;5071455;28;20025;-47
2024/03/23 03:24:37;;;;;;;26.70;24.60;;;;;;;;;;5071447;28;20038;-49
2024/03/23 03:27:03;;;;;;;26.40;24.40;;;;;;;;;;5071531;28;20440;-54
2024/03/23 03:29:35;;;;;;;26.35;24.35;;;;;;;;;;5071688;28;20123;-55
2024/03/23 03:32:01;;;;;;;26.30;24.30;;;;;;;;;;5053391;28;20067;-53
2024/03/23 03:34:27;;;;;;;26.42;24.42;;;;;;;;;;5071140;28;20052;-50
2024/03/23 03:36:53;;;;;;;26.65;24.55;;;;;;;;;;5071513;28;20024;-52
2024/03/23 03:39:19;;;;;;;26.80;24.70;;;;;;;;;;5071575;28;20597;-51
2024/03/23 03:41:45;;;;;;;26.77;24.77;;;;;;;;;;5070209;28;20539;-49
2024/03/23 03:44:11;;;;;;;26.75;24.65;;;;;;;;;;5071236;28;20028;-55
2024/03/23 03:46:37;;;;;;;27.42;25.33;;;;;;;;;;5056102;28;20502;-53
2024/03/23 03:49:03;;;;;;;27.33;25.23;;;;;;;;;;5053721;28;20024;-51
2024/03/23 03:51:29;;;;;;;26.73;24.67;;;;;;;;;;5071476;28;20554;-53
2024/03/23 03:53:55;;;;;;;27.55;25.45;;;;;;;;;;5071218;28;20028;-55
2024/03/23 03:56:22;;;;;;;27.67;25.58;;;;;;;;;;5071452;28;20047;-56
2024/03/23 03:58:48;;;;;;;28.00;25.90;;;;;;;;;;5071490;28;20126;-47
2024/03/23 04:01:14;;;;;;;28.35;26.25;;;;;;;;;;5071108;28;20517;-50
2024/03/23 04:03:43;;;;;;;27.85;25.75;;;;;;;;;;5070330;28;20597;-51
2024/03/23 04:06:09;;;;;;;27.60;25.50;;;;;;;;;;5070601;28;20470;-51
2024/03/23 04:08:35;;;;;;;27.42;25.33;;;;;;;;;;5071144;28;20193;-52
2024/03/23 04:11:01;;;;;;;27.05;24.95;;;;;;;;;;5070935;28;20547;-54
2024/03/23 04:13:27;;;;;;;27.00;24.90;;;;;;;;;;5070276;28;20021;-49
2024/03/23 04:15:57;;;;;;;27.02;24.92;;;;;;;;;;5070737;28;20081;-50
2024/03/23 04:18:24;;;;;;;26.50;24.50;;;;;;;;;;5070579;28;20031;-49
2024/03/23 04:20:49;;;;;;;26.88;24.83;;;;;;;;;;5070710;28;20047;-50
2024/03/23 04:23:15;;;;;;;27.30;25.20;;;;;;;;;;5070068;28;20541;-49
2024/03/23 04:25:41;;;;;;;27.45;25.35;;;;;;;;;;5070392;28;20028;-51
2024/03/23 04:28:07;;;;;;;27.73;25.63;;;;;;;;;;5070441;28;20028;-51
2024/03/23 04:30:33;;;;;;;27.05;24.95;;;;;;;;;;5052622;28;20024;-54
2024/03/23 04:33:00;;;;;;;26.98;24.98;;;;;;;;;;5069780;28;20471;-52
2024/03/23 04:35:26;;;;;;;26.88;24.88;;;;;;;;;;5070260;28;20478;-53
2024/03/23 04:37:53;;;;;;;27.27;25.17;;;;;;;;;;5070325;28;20020;-52
2024/03/23 04:40:20;;;;;;;27.10;25.00;;;;;;;;;;5052188;28;20042;-49
2024/03/23 04:42:46;;;;;;;27.25;25.15;;;;;;;;;;5069626;28;20036;-49
2024/03/23 04:45:12;;;;;;;26.88;24.77;;;;;;;;;;5070212;28;20471;-50
2024/03/23 04:47:38;;;;;;;27.05;24.95;;;;;;;;;;5070350;28;20067;-50
2024/03/23 04:50:05;;;;;;;27.13;25.02;;;;;;;;;;5070206;28;20486;-54
2024/03/23 04:52:31;;;;;;;27.52;25.42;;;;;;;;;;5069255;28;20398;-53
2024/03/23 04:54:57;;;;;;;27.65;25.55;;;;;;;;;;5052131;28;20020;-51
2024/03/23 04:57:23;;;;;;;27.45;25.35;;;;;;;;;;5052348;28;20445;-52
2024/03/23 04:59:49;;;;;;;27.13;25.02;;;;;;;;;;5070688;28;20543;-51
2024/03/23 05:02:16;;;;;;;27.45;25.35;;;;;;;;;;5072789;28;20032;-53
2024/03/23 05:04:42;;;;;;;27.67;25.58;;;;;;;;;;5070325;28;20082;-49
2024/03/23 05:07:08;;;;;;;27.55;25.45;;;;;;;;;;5052365;28;20024;-53
2024/03/23 05:09:34;;;;;;;27.50;25.40;;;;;;;;;;5070217;28;20565;-50
2024/03/23 05:12:00;;;;;;;27.45;25.35;;;;;;;;;;5069745;28;20032;-56
2024/03/23 05:14:27;;;;;;;27.25;25.15;;;;;;;;;;5069735;28;20096;-52
2024/03/23 05:16:53;;;;;;;27.35;25.25;;;;;;;;;;5070030;28;20084;-50
2024/03/23 05:19:19;;;;;;;27.40;25.30;;;;;;;;;;5070208;28;20501;-50
2024/03/23 05:21:45;;;;;;;27.65;25.55;;;;;;;;;;5070073;28;20025;-51
2024/03/23 05:24:12;;;;;;;27.40;25.30;;;;;;;;;;5051760;28;20648;-54
2024/03/23 05:26:38;;;;;;;27.50;25.40;;;;;;;;;;5052351;28;20039;-53
2024/03/23 05:29:04;;;;;;;27.33;25.23;;;;;;;;;;5052883;28;20447;-51
2024/03/23 05:31:31;;;;;;;26.58;24.58;;;;;;;;;;5070267;28;20029;-54
2024/03/23 05:33:57;;;;;;;27.13;25.02;;;;;;;;;;5070729;28;20020;-51
2024/03/23 05:36:24;;;;;;;27.23;25.13;;;;;;;;;;5070376;28;20078;-48
2024/03/23 05:38:50;;;;;;;27.55;25.45;;;;;;;;;;5069796;28;20016;-49
2024/03/23 05:41:16;;;;;;;27.45;25.35;;;;;;;;;;5069673;28;20155;-54
2024/03/23 05:43:42;;;;;;;27.13;25.02;;;;;;;;;;5068972;28;20061;-55
2024/03/23 05:46:08;;;;;;;27.30;25.20;;;;;;;;;;5069592;28;20029;-48
2024/03/23 05:48:34;;;;;;;27.05;24.95;;;;;;;;;;5069619;28;20083;-54
2024/03/23 05:51:01;;;;;;;26.58;24.58;;;;;;;;;;5070167;28;20029;-54
2024/03/23 05:53:28;;;;;;;27.02;24.92;;;;;;;;;;5068998;28;20024;-52
2024/03/23 05:56:01;;;;;;;26.27;24.27;;;;;;;;;;5069628;28;20031;-50
2024/03/23 05:58:27;;;;;;;26.80;24.75;;;;;;;;;;5069511;28;20474;-56
2024/03/23 06:00:58;;;;;;;26.58;24.58;;;;;;;;;;5069651;28;20028;-55
2024/03/23 06:03:24;;;;;;;26.35;24.35;;;;;;;;;;5068898;28;20024;-50
2024/03/23 06:05:50;;;;;;;25.73;23.73;;;;;;;;;;5073343;28;20402;-49
2024/03/23 06:08:16;;;;;;;25.67;23.67;;;;;;;;;;5072867;28;20036;-49
2024/03/23 06:10:42;;;;;;;24.55;22.55;;;;;;;;;;5073272;28;20024;-51
2024/03/23 06:13:08;;;;;;;23.75;21.85;;;;;;;;;;5072438;28;20056;-46
2024/03/23 06:15:37;;;;;;;22.55;20.65;;;;;;;;;;5073155;28;20478;-54
2024/03/23 06:18:04;;;;;;;21.38;19.48;;;;;;;;;;5072761;28;20074;-52
2024/03/23 06:20:30;;;;;;;20.60;18.80;;;;;;;;;;5055420;28;20099;-50
2024/03/23 06:22:56;;;;;;;19.98;18.17;;;;;;;;;;5072366;28;20447;-48
2024/03/23 06:25:22;;;;;;;19.83;18.02;;;;;;;;;;5072979;28;20032;-44
2024/03/23 06:27:48;;;;;;;18.88;17.08;;;;;;;;;;5073551;28;20356;-48
2024/03/23 06:30:14;;;;;;;17.55;15.85;;;;;;;;;;5073373;28;20031;-49
2024/03/23 06:32:40;;;;;;;16.13;14.43;;;;;;;;;;5054662;28;20047;-53
2024/03/23 06:35:08;;;;;;;15.48;13.88;;;;;;;;;;5072826;28;20017;-51
2024/03/23 06:37:38;;;;;;;15.07;13.47;;;;;;;;;;5072709;28;20027;-53
2024/03/23 06:40:08;;;;;;;15.10;13.35;;;;;;;;;;5072648;28;20398;-53
2024/03/23 06:42:34;;;;;;;14.90;12.82;;;;;;;;;;5072040;28;20032;-49
2024/03/23 06:45:00;;;;;;;14.73;12.20;;;;;;;;;;5054375;28;20660;-49
2024/03/23 06:47:26;;;;;;;14.40;11.25;;;;;;;;;;5072515;28;20021;-51
2024/03/23 06:49:52;;;;;;;14.30;10.77;;;;;;;;;;5072531;28;20055;-52
2024/03/23 06:52:18;;;;;;;14.07;10.32;;;;;;;;;;5053965;28;20103;-49
2024/03/23 06:54:44;;;;;;;13.90;9.70;;;;;;;;;;5071929;28;20490;-52
2024/03/23 06:57:11;;;;;;;13.80;9.35;;;;;;;;;;5054507;28;20026;-51
2024/03/23 06:59:38;;;;;;;13.55;8.60;;;;;;;;;;5072121;28;20020;-49
2024/03/23 07:02:04;;;;;;;13.40;8.30;;;;;;;;;;5071745;28;20124;-50
2024/03/23 07:04:30;;;;;;;13.27;8.05;;;;;;;;;;5070512;28;20052;-49
2024/03/23 07:06:56;;;;;;;13.32;8.10;;;;;;;;;;5071796;28;20109;-53
2024/03/23 07:09:25;;;;;;;13.27;8.00;;;;;;;;;;5071897;28;20057;-52
2024/03/23 07:11:51;;;;;;;13.20;7.88;;;;;;;;;;5053637;28;20566;-52
2024/03/23 07:14:17;;;;;;;13.40;8.10;;;;;;;;;;5053233;28;20547;-53
2024/03/23 07:16:44;;;;;;;13.10;7.80;;;;;;;;;;5071309;28;20028;-50
2024/03/23 07:19:10;;;;;;;12.98;7.68;;;;;;;;;;5071826;28;20032;-50
2024/03/23 07:21:36;;;;;;;13.07;7.78;;;;;;;;;;5053451;28;20028;-53
2024/03/23 07:24:02;;;;;;;13.13;7.72;;;;;;;;;;5071224;28;20688;-52
2024/03/23 07:26:28;;;;;;;12.90;7.53;;;;;;;;;;5071571;28;20029;-50
2024/03/23 07:28:54;;;;;;;12.88;7.55;;;;;;;;;;5071674;28;20024;-52
2024/03/23 07:31:20;;;;;;;13.38;8.00;;;;;;;;;;5071310;28;20067;-51
2024/03/23 07:33:47;;;;;;;13.45;8.20;;;;;;;;;;5071059;28;20082;-51
2024/03/23 07:36:13;;;;;;;13.32;7.90;;;;;;;;;;5064043;28;20387;-52
2024/03/23 07:38:42;;;;;;;13.30;7.90;;;;;;;;;;5059283;28;20025;-50
2024/03/23 07:41:09;;;;;;;13.07;7.72;;;;;;;;;;5065760;28;20020;-52
2024/03/23 07:43:36;;;;;;;13.13;7.80;;;;;;;;;;5070725;28;20125;-52
2024/03/23 07:46:03;;;;;;;13.43;8.20;;;;;;;;;;5051383;28;20036;-50
2024/03/23 07:48:30;;;;;;;13.18;7.80;;;;;;;;;;5051114;28;20025;-53
2024/03/23 07:51:02;;;;;;;12.98;7.60;;;;;;;;;;5050870;28;20035;-49
2024/03/23 07:53:29;;;;;;;13.23;7.80;;;;;;;;;;5061223;28;20025;-49
2024/03/23 07:55:55;;;;;;;13.18;7.80;;;;;;;;;;5070960;28;20034;-53
2024/03/23 07:58:21;;;;;;;13.02;7.55;;;;;;;;;;5071086;28;20024;-52
2024/03/23 08:00:47;;;;;;;13.23;8.00;;;;;;;;;;5070848;28;20086;-50
2024/03/23 08:03:13;;;;;;;12.90;7.55;;;;;;;;;;5070007;28;20052;-52
2024/03/23 08:05:39;;;;;;;13.18;7.70;;;;;;;;;;5070234;28;20050;-52
2024/03/23 08:08:05;;;;;;;13.05;7.65;;;;;;;;;;5070677;28;20534;-54
2024/03/23 08:10:31;;;;;;;13.00;7.60;;;;;;;;;;5059955;28;20490;-51
2024/03/23 08:12:58;;;;;;;13.13;7.72;;;;;;;;;;5049835;28;20017;-50
2024/03/23 08:15:24;;;;;;;12.95;7.63;;;;;;;;;;5051384;28;20047;-55
2024/03/23 08:17:50;;;;;;;13.48;8.30;;;;;;;;;;5057587;28;20017;-54
2024/03/23 08:20:16;;;;;;;13.32;8.07;;;;;;;;;;5056537;28;20028;-53
2024/03/23 08:22:42;;;;;;;13.50;8.30;;;;;;;;;;5051615;28;20025;-52
2024/03/23 08:25:08;;;;;;;13.38;8.02;;;;;;;;;;5050806;28;20032;-51
2024/03/23 08:27:34;;;;;;;13.25;7.85;;;;;;;;;;5032259;28;20036;-52
2024/03/23 08:30:00;;;;;;;13.23;7.85;;;;;;;;;;5032701;28;20547;-52
2024/03/23 08:32:26;;;;;;;13.43;8.20;;;;;;;;;;5031953;28;20029;-52
2024/03/23 08:34:52;;;;;;;13.55;8.65;;;;;;;;;;5032270;28;20063;-48
2024/03/23 08:37:18;;;;;;;13.70;8.98;;;;;;;;;;5050021;28;20029;-49
2024/03/23 08:39:44;;;;;;;13.60;8.60;;;;;;;;;;5032395;28;20067;-51
2024/03/23 08:42:10;;;;;;;13.60;8.60;;;;;;;;;;5049898;28;20092;-54
2024/03/23 08:44:36;;;;;;;13.43;8.25;;;;;;;;;;5049573;28;20112;-48
2024/03/23 08:47:02;;;;;;;13.55;8.65;;;;;;;;;;5050295;28;20052;-55
2024/03/23 08:49:29;;;;;;;13.77;9.10;;;;;;;;;;5050052;28;20550;-50
2024/03/23 08:51:55;;;;;;;13.60;8.65;;;;;;;;;;5031750;28;20059;-50
2024/03/23 08:54:23;;;;;;;13.57;8.60;;;;;;;;;;5049591;28;20029;-55
2024/03/23 08:56:49;;;;;;;13.50;8.30;;;;;;;;;;5049902;28;20471;-54
2024/03/23 08:59:15;;;;;;;13.57;8.50;;;;;;;;;;5055974;28;20021;-53
2024/03/23 09:01:41;;;;;;;13.52;8.40;;;;;;;;;;5062898;28;20039;-53
2024/03/23 09:04:06;;;;;;;13.63;8.75;;;;;;;;;;5058684;28;20402;-52
2024/03/23 09:06:32;;;;;;;13.48;8.27;;;;;;;;;;5069699;28;20047;-50
2024/03/23 09:08:58;;;;;;;13.70;8.90;;;;;;;;;;5069570;28;20021;-53
2024/03/23 09:11:24;;;;;;;13.45;8.18;;;;;;;;;;5054751;28;20632;-50
2024/03/23 09:13:50;;;;;;;13.32;8.18;;;;;;;;;;5031224;28;20039;-54
2024/03/23 09:16:16;;;;;;;13.40;8.30;;;;;;;;;;5048970;28;20394;-51
2024/03/23 09:18:42;;;;;;;13.45;8.10;;;;;;;;;;5049223;28;20024;-47
2024/03/23 09:21:15;;;;;;;13.50;8.32;;;;;;;;;;5049649;28;20025;-50
2024/03/23 09:23:43;;;;;;;13.60;8.65;;;;;;;;;;5049056;28;20033;-49
2024/03/23 09:26:09;;;;;;;15.45;10.25;;;;;;;;;;5049804;28;20021;-49
2024/03/23 09:28:35;;;;;;;20.95;8.77;;;;;;;;;;5049473;28;20103;-53
2024/03/23 09:31:08;;;;;;;13.35;7.82;;;;;;;;;;5049346;28;20479;-49
2024/03/23 09:33:35;;;;;;;16.13;9.52;;;;;;;;;;5048955;28;20108;-50
2024/03/23 09:36:04;;;;;;;13.95;8.25;;;;;;;;;;5031315;28;20083;-52
2024/03/23 09:38:31;;;;;;;23.00;8.23;;;;;;;;;;5049094;28;20028;-52
2024/03/23 09:40:57;;;;;;;14.90;8.43;;;;;;;;;;5053171;28;20060;-49
2024/03/23 09:43:23;;;;;;;13.00;7.70;;;;;;;;;;5052768;28;20021;-49
2024/03/23 09:45:50;;;;;;;15.88;8.85;;;;;;;;;;5051931;28;20024;-51
2024/03/23 09:48:16;;;;;;;12.48;7.35;;;;;;;;;;5053639;28;20482;-52
2024/03/23 09:50:45;;;;;;;12.98;7.88;;;;;;;;;;5052321;28;20503;-53
2024/03/23 09:53:12;;;;;;;12.73;7.47;;;;;;;;;;5052535;28;20036;-51
2024/03/23 09:55:38;;;;;;;14.20;7.85;;;;;;;;;;5052987;28;20037;-50
2024/03/23 09:58:05;;;;;;;13.95;8.35;;;;;;;;;;5053062;28;20032;-52
2024/03/23 10:00:31;;;;;;;13.25;7.95;;;;;;;;;;5053106;28;20025;-52
2024/03/23 10:03:01;;;;;;;15.13;8.32;;;;;;;;;;5052496;28;20403;-53
2024/03/23 10:05:28;;;;;;;14.27;7.93;;;;;;;;;;5052992;28;20505;-52
2024/03/23 10:07:54;;;;;;;16.50;8.73;;;;;;;;;;5052871;28;20025;-49
2024/03/23 10:10:23;;;;;;;13.18;7.65;;;;;;;;;;5052963;28;20031;-53
2024/03/23 10:12:53;;;;;;;13.63;7.93;;;;;;;;;;5051986;28;20108;-50
2024/03/23 10:15:23;;;;;;;14.27;9.45;;;;;;;;;;5052522;28;20025;-55
2024/03/23 10:17:49;;;;;;;12.60;7.32;;;;;;;;;;5052843;28;20116;-54
2024/03/23 10:20:22;;;;;;;13.70;8.50;;;;;;;;;;5054426;28;20046;-52
2024/03/23 10:22:49;;;;;;;13.50;8.15;;;;;;;;;;5057011;28;20025;-48
2024/03/23 10:25:15;;;;;;;18.23;8.80;;;;;;;;;;5054629;28;20029;-52
2024/03/23 10:27:43;;;;;;;13.60;8.55;;;;;;;;;;5051394;28;20173;-54
2024/03/23 10:30:10;;;;;;;20.05;9.43;;;;;;;;;;5052722;28;20053;-54
2024/03/23 10:32:36;;;;;;;13.63;8.32;;;;;;;;;;5051628;28;20021;-53
2024/03/23 10:35:24;;;;;;;13.70;8.52;;;;;;;;;;5052516;28;20041;-47
2024/03/23 10:37:51;;;;;;;15.77;8.73;;;;;;;;;;5051326;28;20387;-50
2024/03/23 10:40:18;;;;;;;13.68;8.43;;;;;;;;;;5052549;28;20096;-53
2024/03/23 10:42:47;;;;;;;13.90;8.80;;;;;;;;;;5051924;28;20029;-49
2024/03/23 10:45:13;;;;;;;13.35;7.95;;;;;;;;;;5052294;28;20029;-50
2024/03/23 10:47:39;;;;;;;13.52;8.45;;;;;;;;;;5052346;28;20372;-52
2024/03/23 10:50:05;;;;;;;13.57;8.57;;;;;;;;;;5051481;28;20324;-49
2024/03/23 10:52:32;;;;;;;13.60;8.55;;;;;;;;;;5051158;28;20307;-52
2024/03/23 10:54:59;;;;;;;13.45;8.15;;;;;;;;;;5050464;28;20021;-53
2024/03/23 10:57:30;;;;;;;13.55;8.05;;;;;;;;;;5051929;28;20490;-54
2024/03/23 10:59:57;;;;;;;13.45;8.30;;;;;;;;;;5051878;28;20170;-47
2024/03/23 11:02:23;;;;;;;13.43;8.02;;;;;;;;;;5057329;28;20016;-52
2024/03/23 11:04:49;;;;;;;13.45;8.10;;;;;;;;;;5053663;28;20417;-50
2024/03/23 11:07:24;;;;;;;17.08;9.10;;;;;;;;;;5071805;28;20024;-48
2024/03/23 11:09:52;;;;;;;13.50;8.25;;;;;;;;;;5072148;28;20028;-55
2024/03/23 11:12:24;;;;;;;13.80;8.33;;;;;;;;;;5066965;28;20024;-53
2024/03/23 11:15:04;;;;;;;13.80;8.93;;;;;;;;;;5053901;28;20110;-56
2024/03/23 11:17:30;;;;;;;13.55;8.50;;;;;;;;;;5053909;28;20028;-51
2024/03/23 11:20:00;;;;;;;14.60;9.15;;;;;;;;;;5053933;28;20111;-55
2024/03/23 11:22:42;;;;;;;13.68;8.85;;;;;;;;;;5035362;28;20660;-53
2024/03/23 11:25:22;;;;;;;13.65;8.38;;;;;;;;;;5052641;28;20104;-49
2024/03/23 11:27:49;;;;;;;13.65;8.15;;;;;;;;;;5051447;28;20029;-53
2024/03/23 11:30:24;;;;;;;15.85;8.90;;;;;;;;;;5051119;28;20027;-52
2024/03/23 11:32:51;;;;;;;14.35;8.32;;;;;;;;;;5032566;28;20445;-48
2024/03/23 11:35:36;;;;;;;14.30;8.63;;;;;;;;;;5051221;28;20036;-47
2024/03/23 11:38:08;;;;;;;13.38;7.95;;;;;;;;;;5051030;28;20559;-53
2024/03/23 11:40:34;;;;;;;14.18;8.07;;;;;;;;;;5051575;28;20025;-49
2024/03/23 11:43:01;;;;;;;13.23;7.80;;;;;;;;;;5051195;28;20556;-50
2024/03/23 11:45:28;;;;;;;13.25;7.90;;;;;;;;;;5051190;28;20044;-51
2024/03/23 11:48:03;;;;;;;12.40;7.20;;;;;;;;;;5033382;28;20120;-52
2024/03/23 11:50:29;;;;;;;16.67;7.78;;;;;;;;;;5051612;28;20035;-50
2024/03/23 11:53:13;;;;;;;12.88;7.50;;;;;;;;;;5058422;28;20549;-51
2024/03/23 11:55:40;;;;;;;11.88;7.20;;;;;;;;;;5058812;28;20607;-48
2024/03/23 11:58:06;;;;;;;13.48;7.95;;;;;;;;;;5065563;28;20021;-52
2024/03/23 12:00:32;;;;;;;12.63;7.55;;;;;;;;;;5068787;28;20021;-51
2024/03/23 12:03:05;;;;;;;17.65;8.25;;;;;;;;;;5069447;28;20479;-49
2024/03/23 12:05:32;;;;;;;12.00;7.10;;;;;;;;;;5064608;22;20039;-53
2024/03/23 12:08:17;;;;;;;12.68;7.40;;;;;;;;;;5038786;28;20037;-56
2024/03/23 12:10:45;;;;;;;12.60;7.55;;;;;;;;;;5054977;28;20024;-53
2024/03/23 12:13:11;;;;;;;12.77;7.40;;;;;;;;;;5057139;28;20020;-56
2024/03/23 12:15:37;;;;;;;13.52;8.35;;;;;;;;;;5056544;28;20035;-57
2024/03/23 12:18:07;;;;;;;14.40;8.32;;;;;;;;;;5049868;28;20082;-50
2024/03/23 12:20:33;;;;;;;13.13;7.72;;;;;;;;;;5049407;28;20021;-51
2024/03/23 12:23:12;;;;;;;12.82;7.38;;;;;;;;;;5048630;28;20471;-52
2024/03/23 12:25:39;;;;;;;12.60;7.35;;;;;;;;;;5049273;28;20039;-53
2024/03/23 12:28:06;;;;;;;13.32;8.07;;;;;;;;;;5049337;28;20089;-53
2024/03/23 12:30:32;;;;;;;13.27;7.75;;;;;;;;;;5049271;28;20096;-56
2024/03/23 12:32:58;;;;;;;13.10;7.63;;;;;;;;;;5048298;28;20021;-56
2024/03/23 12:35:24;;;;;;;12.77;7.40;;;;;;;;;;5049358;28;20447;-52
2024/03/23 12:37:50;;;;;;;15.57;8.10;;;;;;;;;;5047105;28;20109;-51
2024/03/23 12:40:16;;;;;;;15.10;13.00;;;;;;;;;;5049232;28;20518;-49
2024/03/23 12:42:42;;;;;;;15.57;13.88;;;;;;;;;;5049025;28;20127;-55
2024/03/23 12:45:08;;;;;;;14.60;11.40;;;;;;;;;;5049799;28;20057;-51
2024/03/23 12:47:34;;;;;;;13.88;9.25;;;;;;;;;;5019921;28;20025;-51
2024/03/23 12:50:00;;;;;;;13.93;9.45;;;;;;;;;;5048223;28;20375;-54
2024/03/23 12:52:29;;;;;;;13.88;9.52;;;;;;;;;;5048613;28;20028;-54
2024/03/23 12:54:59;;;;;;;14.00;9.77;;;;;;;;;;5048038;28;20053;-55
2024/03/23 12:57:25;;;;;;;13.93;9.60;;;;;;;;;;5049192;28;20037;-54
2024/03/23 12:59:54;;;;;;;14.05;9.85;;;;;;;;;;5049667;28;20036;-53
2024/03/23 13:02:20;;;;;;;14.07;9.90;;;;;;;;;;5049236;28;20819;-55
2024/03/23 13:04:47;;;;;;;14.30;10.38;;;;;;;;;;5049178;28;20021;-53
2024/03/23 13:07:13;;;;;;;13.85;9.40;;;;;;;;;;5049450;28;20380;-55
2024/03/23 13:09:39;;;;;;;13.75;9.10;;;;;;;;;;5048944;28;20029;-55
2024/03/23 13:12:05;;;;;;;15.55;8.70;;;;;;;;;;5031207;28;20434;-56
2024/03/23 13:14:31;;;;;;;13.35;8.10;;;;;;;;;;5048609;28;20067;-55
2024/03/23 13:16:57;;;;;;;13.75;8.70;;;;;;;;;;5048274;28;20567;-56
2024/03/23 13:19:26;;;;;;;14.70;9.18;;;;;;;;;;5048642;28;20100;-53
2024/03/23 13:21:53;;;;;;;14.05;8.20;;;;;;;;;;5049258;28;20056;-52
2024/03/23 13:24:21;;;;;;;13.38;8.32;;;;;;;;;;5048756;28;20025;-48
2024/03/23 13:26:47;;;;;;;;;;;;;;;;;;5049831;28;20100;-52
2024/03/23 13:29:13;;;;;;;15.18;9.05;;;;;;;;;;5048917;28;19951;-56
2024/03/23 13:31:40;;;;;;;13.52;8.18;;;;;;;;;;5048622;28;20029;-55
2024/03/23 13:34:06;;;;;;;14.75;8.85;;;;;;;;;;5048265;28;20045;-51
2024/03/23 13:36:31;;;;;;;13.90;8.35;;;;;;;;;;5049173;28;20025;-53
2024/03/23 13:38:57;;;;;;;13.18;7.78;;;;;;;;;;5030205;28;20499;-55
2024/03/23 13:41:24;;;;;;;13.52;8.60;;;;;;;;;;5028057;28;20111;-52
2024/03/23 13:43:50;;;;;;;13.52;8.48;;;;;;;;;;5027944;28;20485;-54
2024/03/23 13:46:16;;;;;;;13.60;8.55;;;;;;;;;;5028546;28;20109;-56
2024/03/23 13:48:42;;;;;;;14.20;9.00;;;;;;;;;;5028614;28;20519;-56
2024/03/23 13:51:08;;;;;;;14.40;10.90;;;;;;;;;;5028508;28;20026;-52
2024/03/23 13:53:34;;;;;;;18.02;16.13;;;;;;;;;;5028442;28;20029;-56
2024/03/23 13:56:00;;;;;;;20.13;18.23;;;;;;;;;;5028282;28;20036;-53
2024/03/23 13:58:26;;;;;;;21.52;19.52;;;;;;;;;;5028694;28;20029;-53
2024/03/23 14:00:52;;;;;;;23.65;21.65;;;;;;;;;;5047807;28;20041;-49
2024/03/23 14:03:19;;;;;;;21.33;19.42;;;;;;;;;;5046688;28;20025;-54
2024/03/23 14:05:47;;;;;;;20.27;18.38;;;;;;;;;;5047217;28;20048;-53
2024/03/23 14:08:13;;;;;;;18.03;16.23;;;;;;;;;;5048208;28;20147;-54
2024/03/23 14:10:43;;;;;;;17.25;15.55;;;;;;;;;;5048028;28;20122;-50
2024/03/23 14:13:09;;;;;;;15.93;14.23;;;;;;;;;;5047318;28;20021;-53
2024/03/23 14:15:36;;;;;;;16.23;14.52;;;;;;;;;;5047951;28;20028;-53
2024/03/23 14:18:03;;;;;;;15.77;14.07;;;;;;;;;;5030035;28;20089;-52
2024/03/23 14:20:29;;;;;;;16.25;14.55;;;;;;;;;;5047569;28;20021;-55